createdAt,value
2018-12-29T00:05:18.540Z,0.36
2018-12-29T00:08:08.998Z,0.29
2018-12-29T00:10:52.062Z,0.23
2018-12-29T00:13:42.567Z,0.25
2018-12-29T00:16:25.449Z,0.12
2018-12-29T00:19:18.001Z,0.16
2018-12-29T00:22:01.607Z,0.09
2018-12-29T00:24:52.125Z,0.08
2018-12-29T00:27:35.345Z,0.13
2018-12-29T00:30:25.867Z,0.11
2018-12-29T00:33:09.136Z,-0.08
2018-12-29T00:35:59.611Z,-0.02
2018-12-29T00:38:43.029Z,-0.02
2018-12-29T00:41:24.620Z,-0.15
2018-12-29T00:44:08.060Z,-0.10
2018-12-29T00:46:58.537Z,-0.22
2018-12-29T00:49:42.068Z,-0.19
2018-12-29T00:52:33.582Z,-0.17
2018-12-29T00:55:17.293Z,-0.21
2018-12-29T00:58:07.828Z,-0.20
2018-12-29T01:00:51.346Z,-0.29
2018-12-29T01:03:42.756Z,-0.37
2018-12-29T01:06:25.743Z,-0.35
2018-12-29T01:09:16.268Z,-0.35
2018-12-29T01:11:59.763Z,-0.45
2018-12-29T01:14:50.228Z,-0.46
2018-12-29T01:17:35.139Z,-0.39
2018-12-29T01:20:25.653Z,-0.46
2018-12-29T01:23:09.018Z,-0.43
2018-12-29T01:25:59.551Z,-0.36
2018-12-29T01:28:43.136Z,-0.28
2018-12-29T01:31:33.684Z,-0.34
2018-12-29T01:34:16.438Z,-0.49
2018-12-29T01:37:06.968Z,-0.43
2018-12-29T01:39:50.318Z,-0.52
2018-12-29T01:42:40.866Z,-0.43
2018-12-29T01:45:23.926Z,-0.52
2018-12-29T01:48:14.464Z,-0.46
2018-12-29T01:50:57.746Z,-0.39
2018-12-29T01:53:48.834Z,-0.50
2018-12-29T01:56:30.352Z,-0.52
2018-12-29T01:59:20.904Z,-0.58
2018-12-29T02:02:04.192Z,-0.65
2018-12-29T02:04:54.729Z,-0.68
2018-12-29T02:07:38.094Z,-0.63
2018-12-29T02:10:28.627Z,-0.67
2018-12-29T02:13:11.899Z,-0.58
2018-12-29T02:16:02.424Z,-0.64
2018-12-29T02:18:45.698Z,-0.65
2018-12-29T02:21:36.234Z,-0.64
2018-12-29T02:24:19.472Z,-0.82
2018-12-29T02:27:10.027Z,-0.74
2018-12-29T02:29:51.625Z,-0.81
2018-12-29T02:32:42.163Z,-0.77
2018-12-29T02:35:25.368Z,-0.65
2018-12-29T02:38:15.907Z,-0.61
2018-12-29T02:41:00.702Z,-0.46
2018-12-29T02:43:51.144Z,-0.56
2018-12-29T02:46:34.518Z,-0.52
2018-12-29T02:49:25.140Z,-0.66
2018-12-29T02:52:09.571Z,-0.54
2018-12-29T02:55:00.164Z,-0.73
2018-12-29T02:57:41.714Z,-0.74
2018-12-29T03:00:32.245Z,-0.63
2018-12-29T03:03:15.462Z,-0.67
2018-12-29T03:06:06.030Z,-0.56
2018-12-29T03:08:49.290Z,-0.47
2018-12-29T03:11:39.802Z,-0.58
2018-12-29T03:14:21.356Z,-0.72
2018-12-29T03:17:11.821Z,-1.08
2018-12-29T03:19:55.329Z,-0.97
2018-12-29T03:22:45.831Z,-1.03
2018-12-29T03:25:29.400Z,-0.97
2018-12-29T03:28:19.933Z,-0.94
2018-12-29T03:31:03.001Z,-1.03
2018-12-29T03:33:53.539Z,-1.06
2018-12-29T03:36:37.081Z,-0.87
2018-12-29T03:39:27.591Z,-0.89
2018-12-29T03:42:10.843Z,-0.79
2018-12-29T03:45:01.326Z,-0.85
2018-12-29T03:47:44.683Z,-0.91
2018-12-29T03:50:35.219Z,-0.98
2018-12-29T03:53:18.482Z,-0.95
2018-12-29T03:56:09.023Z,-0.90
2018-12-29T03:58:51.813Z,-0.77
2018-12-29T04:01:42.324Z,-0.78
2018-12-29T04:04:25.711Z,-0.85
2018-12-29T04:07:16.167Z,-0.62
2018-12-29T04:09:59.540Z,-0.59
2018-12-29T04:12:54.066Z,-0.40
2018-12-29T04:15:37.616Z,-0.52
2018-12-29T04:18:28.151Z,-0.76
2018-12-29T04:21:11.411Z,-0.62
2018-12-29T04:24:01.929Z,-0.57
2018-12-29T04:26:45.199Z,-0.49
2018-12-29T04:29:35.717Z,-0.58
2018-12-29T04:32:19.259Z,-0.63
2018-12-29T04:35:09.707Z,-0.54
2018-12-29T04:37:52.666Z,-0.55
2018-12-29T04:44:09.894Z,-0.58
2018-12-29T04:46:52.574Z,-0.51
2018-12-29T04:49:35.714Z,-0.73
2018-12-29T04:52:26.279Z,-0.67
2018-12-29T04:55:09.489Z,-0.78
2018-12-29T04:57:59.962Z,-0.61
2018-12-29T05:00:42.957Z,-0.52
2018-12-29T05:03:33.490Z,-0.66
2018-12-29T05:06:16.651Z,-0.65
2018-12-29T05:09:27.417Z,-0.89
2018-12-29T05:12:10.145Z,-0.50
2018-12-29T05:15:00.676Z,-0.54
2018-12-29T05:17:43.979Z,-0.34
2018-12-29T05:20:34.525Z,-0.33
2018-12-29T05:23:17.329Z,-0.37
2018-12-29T05:26:07.845Z,-0.78
2018-12-29T05:28:50.953Z,-0.48
2018-12-29T05:31:41.486Z,-0.69
2018-12-29T05:34:23.053Z,-1.00
2018-12-29T05:37:14.488Z,-0.93
2018-12-29T05:39:58.930Z,-0.98
2018-12-29T05:42:49.457Z,-1.05
2018-12-29T05:45:32.184Z,-0.83
2018-12-29T05:48:22.719Z,-0.96
2018-12-29T05:51:05.918Z,-0.76
2018-12-29T05:53:56.430Z,-1.05
2018-12-29T05:56:39.650Z,-0.90
2018-12-29T05:59:30.174Z,-0.88
2018-12-29T06:02:13.677Z,-0.84
2018-12-29T06:05:04.263Z,-0.79
2018-12-29T06:07:47.652Z,-0.90
2018-12-29T06:10:38.188Z,-0.90
2018-12-29T06:13:21.792Z,-1.04
2018-12-29T06:16:12.308Z,-0.78
2018-12-29T06:18:53.927Z,-0.89
2018-12-29T06:21:44.537Z,-0.87
2018-12-29T06:24:27.666Z,-0.95
2018-12-29T06:27:18.192Z,-0.70
2018-12-29T06:30:01.385Z,-0.65
2018-12-29T06:32:51.945Z,-0.61
2018-12-29T06:35:35.348Z,-0.54
2018-12-29T06:38:25.872Z,-0.55
2018-12-29T06:41:08.793Z,-0.70
2018-12-29T06:43:59.329Z,-0.65
2018-12-29T06:46:42.805Z,-0.51
2018-12-29T06:49:33.372Z,-0.46
2018-12-29T06:52:16.804Z,-0.45
2018-12-29T06:55:07.343Z,-0.59
2018-12-29T06:57:50.672Z,-0.38
2018-12-29T07:00:41.186Z,-0.35
2018-12-29T07:03:24.079Z,-0.46
2018-12-29T07:06:14.601Z,-0.25
2018-12-29T07:08:57.801Z,-0.41
2018-12-29T07:11:48.252Z,-0.49
2018-12-29T07:14:31.528Z,-0.48
2018-12-29T07:17:22.083Z,-0.44
2018-12-29T07:20:05.402Z,-0.70
2018-12-29T07:22:55.938Z,-0.57
2018-12-29T07:25:39.064Z,-0.50
2018-12-29T07:28:29.621Z,-0.53
2018-12-29T07:31:13.170Z,-0.57
2018-12-29T07:33:56.254Z,-0.55
2018-12-29T07:36:38.997Z,-0.47
2018-12-29T07:39:29.520Z,-0.34
2018-12-29T07:42:12.758Z,-0.21
2018-12-29T07:45:04.238Z,-0.28
2018-12-29T07:47:45.750Z,-0.44
2018-12-29T07:50:36.276Z,-0.45
2018-12-29T07:53:19.653Z,-0.39
2018-12-29T07:56:10.204Z,-0.33
2018-12-29T07:58:51.838Z,-0.36
2018-12-29T08:01:42.378Z,-0.36
2018-12-29T08:04:25.271Z,-0.34
2018-12-29T08:07:15.780Z,-0.23
2018-12-29T08:09:58.956Z,-0.04
2018-12-29T08:12:49.483Z,-0.12
2018-12-29T08:15:32.925Z,-0.41
2018-12-29T08:18:23.462Z,-0.10
2018-12-29T08:21:07.043Z,-0.14
2018-12-29T08:23:57.576Z,-0.02
2018-12-29T08:26:40.329Z,-0.16
2018-12-29T08:29:30.861Z,-0.27
2018-12-29T08:32:14.044Z,-0.42
2018-12-29T08:34:56.914Z,-0.50
2018-12-29T08:37:38.564Z,-0.29
2018-12-29T08:40:29.091Z,-0.37
2018-12-29T08:43:12.576Z,-0.48
2018-12-29T08:46:03.016Z,-0.40
2018-12-29T08:48:44.580Z,-0.34
2018-12-29T08:51:35.096Z,-0.29
2018-12-29T08:54:18.557Z,-0.50
2018-12-29T08:57:09.167Z,-0.31
2018-12-29T08:59:52.451Z,-0.17
2018-12-29T09:02:42.996Z,-0.03
2018-12-29T09:05:31.905Z,-0.06
2018-12-29T09:08:22.449Z,0.08
2018-12-29T09:11:05.451Z,-0.12
2018-12-29T09:13:55.982Z,0.05
2018-12-29T09:16:39.132Z,0.13
2018-12-29T09:19:29.636Z,0.39
2018-12-29T09:22:12.978Z,0.39
2018-12-29T09:25:03.515Z,0.28
2018-12-29T09:27:46.949Z,0.18
2018-12-29T09:30:38.198Z,0.10
2018-12-29T09:33:21.741Z,0.46
2018-12-29T09:36:03.241Z,0.64
2018-12-29T09:38:44.853Z,0.58
2018-12-29T09:41:35.357Z,0.67
2018-12-29T09:44:17.046Z,0.67
2018-12-29T09:46:48.537Z,0.79
2018-12-29T09:49:20.097Z,0.81
2018-12-29T09:51:51.716Z,1.04
2018-12-29T09:54:23.333Z,1.13
2018-12-29T09:56:54.788Z,1.07
2018-12-29T09:59:26.252Z,0.91
2018-12-29T10:01:57.721Z,1.03
2018-12-29T10:04:29.162Z,1.19
2018-12-29T10:07:00.690Z,1.34
2018-12-29T10:09:32.126Z,1.11
2018-12-29T10:12:03.597Z,1.11
2018-12-29T10:14:35.064Z,1.20
2018-12-29T10:17:06.522Z,1.27
2018-12-29T10:19:37.974Z,1.40
2018-12-29T10:22:09.496Z,1.40
2018-12-29T10:24:41.026Z,1.44
2018-12-29T10:27:12.499Z,1.45
2018-12-29T10:29:44.028Z,1.37
2018-12-29T10:32:16.581Z,1.65
2018-12-29T10:34:48.150Z,1.72
2018-12-29T10:37:19.659Z,1.98
2018-12-29T10:39:51.116Z,1.59
2018-12-29T10:42:22.601Z,1.51
2018-12-29T10:45:06.314Z,1.85
2018-12-29T10:47:57.030Z,1.90
2018-12-29T10:50:40.577Z,1.77
2018-12-29T10:53:31.271Z,1.81
2018-12-29T10:56:14.442Z,2.10
2018-12-29T11:02:11.534Z,1.72
2018-12-29T11:05:02.172Z,1.77
2018-12-29T11:07:45.564Z,1.68
2018-12-29T11:10:28.346Z,1.53
2018-12-29T11:13:18.886Z,1.56
2018-12-29T11:16:02.097Z,2.02
2018-12-29T11:22:12.678Z,1.88
2018-12-29T11:24:55.441Z,1.83
2018-12-29T11:27:38.354Z,2.18
2018-12-29T11:33:31.302Z,1.98
2018-12-29T11:36:14.998Z,1.95
2018-12-29T11:42:34.090Z,2.12
2018-12-29T11:45:24.717Z,2.01
2018-12-29T11:48:08.209Z,1.99
2018-12-29T11:50:51.821Z,2.23
2018-12-29T11:56:44.314Z,2.09
2018-12-29T11:59:34.867Z,2.02
2018-12-29T12:02:24.403Z,1.86
2018-12-29T12:08:30.571Z,1.93
2018-12-29T12:11:13.883Z,1.77
2018-12-29T12:13:57.733Z,2.11
2018-12-29T12:16:48.304Z,1.97
2018-12-29T12:19:31.543Z,1.89
2018-12-29T12:22:22.103Z,2.05
2018-12-29T12:25:03.781Z,2.01
2018-12-29T12:27:54.308Z,2.02
2018-12-29T12:30:37.757Z,2.17
2018-12-29T12:33:28.570Z,2.30
2018-12-29T12:36:11.860Z,2.22
2018-12-29T12:39:02.469Z,2.32
2018-12-29T12:41:53.207Z,2.54
2018-12-29T12:44:43.785Z,2.68
2018-12-29T12:47:47.277Z,2.39
2018-12-29T12:50:37.848Z,2.52
2018-12-29T12:53:21.424Z,2.58
2018-12-29T12:59:14.359Z,2.47
2018-12-29T13:05:08.793Z,2.43
2018-12-29T13:07:59.319Z,2.71
2018-12-29T13:10:42.377Z,2.77
2018-12-29T13:16:34.662Z,2.49
2018-12-29T13:19:28.625Z,2.71
2018-12-29T13:22:15.779Z,2.61
2018-12-29T13:25:06.302Z,2.69
2018-12-29T13:27:47.986Z,2.62
2018-12-29T13:30:38.593Z,2.80
2018-12-29T13:33:21.530Z,2.93
2018-12-29T13:36:05.421Z,3.12
2018-12-29T13:38:48.980Z,3.11
2018-12-29T13:41:39.576Z,3.05
2018-12-29T13:44:33.330Z,2.97
2018-12-29T13:47:23.886Z,3.11
2018-12-29T13:50:07.239Z,2.97
2018-12-29T13:52:57.754Z,3.13
2018-12-29T13:55:41.269Z,3.10
2018-12-29T13:58:32.780Z,3.08
2018-12-29T14:01:16.415Z,3.20
2018-12-29T14:04:06.952Z,3.15
2018-12-29T14:07:11.242Z,2.96
2018-12-29T14:10:01.809Z,3.02
2018-12-29T14:12:45.421Z,3.08
2018-12-29T14:15:35.958Z,3.12
2018-12-29T14:18:17.525Z,3.01
2018-12-29T14:24:10.458Z,2.96
2018-12-29T14:30:03.464Z,3.00
2018-12-29T14:32:54.087Z,3.07
2018-12-29T14:35:56.578Z,3.02
2018-12-29T14:38:47.090Z,2.98
2018-12-29T14:41:30.514Z,3.10
2018-12-29T14:44:20.975Z,2.91
2018-12-29T14:47:02.527Z,2.77
2018-12-29T14:49:53.068Z,2.70
2018-12-29T14:52:36.231Z,2.82
2018-12-29T14:55:26.771Z,2.97
2018-12-29T14:58:10.198Z,2.78
2018-12-29T15:01:00.798Z,2.84
2018-12-29T15:03:43.995Z,2.86
2018-12-29T15:06:34.574Z,2.84
2018-12-29T15:09:17.633Z,2.84
2018-12-29T15:12:08.501Z,2.87
2018-12-29T15:14:53.307Z,2.79
2018-12-29T15:17:43.902Z,2.77
2018-12-29T15:20:33.902Z,2.55
2018-12-29T15:23:24.749Z,2.52
2018-12-29T15:26:08.299Z,2.49
2018-12-29T15:28:58.774Z,2.37
2018-12-29T15:31:42.162Z,2.44
2018-12-29T15:34:32.732Z,2.30
2018-12-29T15:37:15.608Z,2.25
2018-12-29T15:40:06.236Z,2.69
2018-12-29T15:42:49.425Z,3.31
2018-12-29T15:45:39.922Z,2.56
2018-12-29T15:48:23.382Z,2.13
2018-12-29T16:12:47.003Z,1.89
2018-12-29T16:15:50.993Z,1.96
2018-12-29T16:18:41.833Z,1.89
2018-12-29T16:21:44.378Z,1.92
2018-12-29T16:24:35.291Z,1.93
2018-12-29T16:27:38.972Z,2.03
2018-12-29T16:30:29.582Z,1.96
2018-12-29T16:33:13.191Z,2.02
2018-12-29T16:35:54.861Z,1.90
2018-12-29T16:38:38.337Z,1.89
2018-12-29T16:41:22.107Z,1.83
2018-12-29T16:44:13.079Z,1.91
2018-12-29T16:46:56.387Z,1.94
2018-12-29T16:49:46.973Z,1.68
2018-12-29T16:52:37.225Z,1.73
2018-12-29T16:55:28.070Z,1.92
2018-12-29T16:58:32.199Z,1.45
2018-12-29T17:01:22.806Z,1.68
2018-12-29T17:04:05.691Z,1.47
2018-12-29T17:06:56.690Z,1.43
2018-12-29T17:10:00.256Z,1.63
2018-12-29T17:12:50.802Z,1.50
2018-12-29T17:15:34.224Z,1.36
2018-12-29T17:18:25.297Z,1.55
2018-12-29T17:21:08.382Z,1.65
2018-12-29T17:23:58.933Z,1.65
2018-12-29T17:26:42.322Z,1.79
2018-12-29T17:29:33.016Z,1.64
2018-12-29T17:32:14.744Z,1.67
2018-12-29T17:35:05.382Z,1.62
2018-12-29T17:37:48.796Z,1.71
2018-12-29T17:40:39.265Z,1.65
2018-12-29T17:43:22.764Z,1.61
2018-12-29T17:46:13.411Z,1.61
2018-12-29T17:48:55.216Z,1.66
2018-12-29T17:51:46.138Z,1.59
2018-12-29T17:54:29.179Z,1.71
2018-12-29T17:57:19.724Z,1.58
2018-12-29T18:00:02.550Z,1.73
2018-12-29T18:02:54.163Z,1.71
2018-12-29T18:05:37.175Z,1.54
2018-12-29T18:08:27.707Z,1.58
2018-12-29T18:11:11.226Z,1.60
2018-12-29T18:14:01.770Z,1.65
2018-12-29T18:16:45.287Z,1.43
2018-12-29T18:19:36.056Z,1.56
2018-12-29T18:22:38.378Z,1.51
2018-12-29T18:28:31.044Z,1.47
2018-12-29T18:31:21.595Z,1.48
2018-12-29T18:34:03.120Z,1.42
2018-12-29T18:36:53.744Z,1.41
2018-12-29T18:39:44.341Z,1.49
2018-12-29T18:42:27.168Z,1.46
2018-12-29T18:45:17.796Z,1.40
2018-12-29T18:48:00.804Z,1.41
2018-12-29T18:50:51.450Z,1.42
2018-12-29T18:53:34.309Z,1.29
2018-12-29T18:56:24.973Z,1.32
2018-12-29T19:01:57.366Z,1.36
2018-12-29T19:04:42.682Z,1.26
2018-12-29T19:07:26.324Z,1.43
2018-12-29T19:10:16.886Z,1.19
2018-12-29T19:13:00.109Z,1.23
2018-12-29T19:15:50.652Z,1.25
2018-12-29T19:18:32.428Z,1.07
2018-12-29T19:21:22.983Z,1.25
2018-12-29T19:24:27.339Z,1.17
2018-12-29T19:30:20.178Z,0.68
2018-12-29T19:33:11.097Z,0.89
2018-12-29T19:35:54.597Z,0.89
2018-12-29T19:38:36.386Z,1.01
2018-12-29T19:41:26.869Z,0.84
2018-12-29T19:44:30.461Z,0.80
2018-12-29T19:47:21.143Z,0.86
2018-12-29T19:50:04.654Z,0.97
2018-12-29T19:52:55.237Z,1.27
2018-12-29T19:55:38.710Z,1.13
2018-12-29T19:58:29.298Z,1.15
2018-12-29T20:01:12.723Z,0.98
2018-12-29T20:04:03.305Z,1.14
2018-12-29T20:06:46.553Z,1.12
2018-12-29T20:09:29.649Z,1.09
2018-12-29T20:12:20.576Z,1.08
2018-12-29T20:15:04.084Z,0.97
2018-12-29T20:17:54.660Z,1.05
2018-12-29T20:20:37.753Z,0.96
2018-12-29T20:23:28.363Z,0.89
2018-12-29T20:26:11.706Z,0.75
2018-12-29T20:29:02.252Z,0.77
2018-12-29T20:31:45.772Z,0.89
2018-12-29T20:34:36.276Z,0.96
2018-12-29T20:37:19.152Z,0.89
2018-12-29T20:40:02.037Z,0.88
2018-12-29T20:42:52.685Z,0.78
2018-12-29T20:45:36.088Z,0.93
2018-12-29T20:48:29.056Z,1.03
2018-12-29T20:51:12.342Z,0.93
2018-12-29T20:54:02.919Z,0.92
2018-12-29T20:56:46.055Z,0.80
2018-12-29T20:59:36.668Z,0.90
2018-12-29T21:02:18.333Z,1.05
2018-12-29T21:05:08.885Z,1.14
2018-12-29T21:07:52.039Z,1.13
2018-12-29T21:10:34.813Z,1.28
2018-12-29T21:13:25.363Z,1.11
2018-12-29T21:16:09.794Z,1.02
2018-12-29T21:21:50.660Z,0.96
2018-12-29T21:24:22.105Z,1.24
2018-12-29T21:26:53.526Z,1.62
2018-12-29T21:29:25.065Z,1.21
2018-12-29T21:31:58.138Z,1.03
2018-12-29T21:34:48.671Z,1.17
2018-12-29T21:37:31.582Z,1.10
2018-12-29T21:40:14.950Z,1.15
2018-12-29T21:42:58.538Z,1.02
2018-12-29T21:45:49.072Z,0.97
2018-12-29T21:48:30.662Z,1.16
2018-12-29T21:51:21.219Z,1.09
2018-12-29T21:54:04.572Z,0.88
2018-12-29T21:56:55.105Z,1.02
2018-12-29T21:59:38.651Z,1.02
2018-12-29T22:31:25.643Z,1.15
2018-12-29T22:34:16.157Z,1.12
2018-12-29T22:36:59.202Z,1.27
2018-12-29T22:39:42.993Z,1.11
2018-12-29T22:42:36.645Z,1.11
2018-12-29T22:50:59.269Z,1.33
2018-12-29T22:53:42.039Z,1.36
2018-12-29T22:59:11.487Z,1.32
2018-12-29T23:05:07.994Z,1.18
2018-12-29T23:10:33.239Z,1.18
2018-12-29T23:13:18.782Z,1.12
2018-12-29T23:16:01.103Z,1.26
2018-12-29T23:18:43.428Z,1.27
2018-12-29T23:21:29.733Z,1.19
2018-12-29T23:24:12.607Z,1.19
2018-12-29T23:26:53.731Z,1.20
2018-12-29T23:29:36.602Z,1.25
2018-12-29T23:32:20.551Z,1.28
2018-12-29T23:35:04.454Z,1.22
2018-12-29T23:37:46.989Z,1.40
2018-12-29T23:40:29.685Z,1.40
2018-12-29T23:43:12.074Z,1.41
2018-12-29T23:46:02.607Z,1.48
2018-12-29T23:48:52.308Z,1.31
2018-12-29T23:51:34.519Z,1.47
2018-12-29T23:54:16.570Z,1.59
2018-12-29T23:57:05.974Z,1.51
2018-12-29T23:59:48.685Z,1.64
